Time;durP1;ratioP1;P1;durP2;ratioP2;P2;SDS_P1;SDS_P2;PMS_P1;PMS_P2;Temp;Humidity;BMP_temperature;BMP_pressure;BME280_temperature;BME280_humidity;BME280_pressure;Samples;Min_cycle;Max_cycle;Signal;HPM_P1;HPM_P2
2023/03/25 00:02:15;;;;;;;4.53;1.57;;;9.90;32.00;;;;;;5098197;28;21005;-72
2023/03/25 00:04:42;;;;;;;4.47;1.47;;;9.90;32.10;;;;;;5098220;28;20462;-72
2023/03/25 00:07:09;;;;;;;4.33;1.60;;;9.90;32.30;;;;;;5097726;28;20471;-72
2023/03/25 00:09:36;;;;;;;7.00;2.30;;;9.90;32.30;;;;;;5096746;28;20462;-72
2023/03/25 00:12:04;;;;;;;8.60;2.23;;;9.90;32.40;;;;;;5095283;28;21129;-72
2023/03/25 00:14:31;;;;;;;5.43;1.67;;;10.00;32.00;;;;;;5092861;28;20484;-72
2023/03/25 00:17:00;;;;;;;5.63;1.80;;;10.00;31.90;;;;;;5091076;28;21259;-72
2023/03/25 00:19:27;;;;;;;5.63;1.97;;;10.00;31.50;;;;;;5093432;28;20466;-72
2023/03/25 00:21:53;;;;;;;4.43;1.47;;;10.00;31.70;;;;;;5091937;28;20463;-72
2023/03/25 00:24:20;;;;;;;5.20;1.63;;;9.90;31.80;;;;;;5092039;28;20461;-72
2023/03/25 00:26:47;;;;;;;5.37;2.10;;;9.80;31.90;;;;;;5095944;28;20479;-72
2023/03/25 00:29:16;;;;;;;4.87;1.60;;;9.70;32.10;;;;;;5093379;28;20464;-72
2023/03/25 00:31:43;;;;;;;7.27;1.90;;;9.70;32.20;;;;;;5092862;28;20474;-72
2023/03/25 00:34:13;;;;;;;5.40;1.63;;;9.70;32.00;;;;;;5100391;28;20843;-72
2023/03/25 00:36:40;;;;;;;5.37;1.70;;;9.70;32.10;;;;;;5088704;28;20488;-72
2023/03/25 00:39:08;;;;;;;5.50;1.23;;;9.60;32.00;;;;;;5090521;28;20460;-72
2023/03/25 00:41:36;;;;;;;5.13;1.53;;;9.70;32.00;;;;;;5099117;28;20548;-72
2023/03/25 00:44:04;;;;;;;4.83;1.33;;;9.60;31.90;;;;;;5095206;28;20871;-72
2023/03/25 00:46:33;;;;;;;4.50;1.23;;;9.60;31.80;;;;;;5096846;28;20596;-72
2023/03/25 00:49:00;;;;;;;4.73;1.30;;;9.50;31.90;;;;;;5087539;28;20453;-72
2023/03/25 00:51:30;;;;;;;5.90;1.70;;;9.50;31.90;;;;;;5099871;28;20447;-72
2023/03/25 00:54:00;;;;;;;4.53;1.07;;;9.40;31.60;;;;;;5094644;28;20815;-72
2023/03/25 00:56:27;;;;;;;6.87;1.37;;;9.40;31.40;;;;;;5090927;28;20483;-72
2023/03/25 00:58:54;;;;;;;4.60;1.47;;;9.50;31.40;;;;;;5094051;28;20463;-72
2023/03/25 01:01:25;;;;;;;5.20;1.57;;;9.50;31.20;;;;;;5096922;28;20467;-74
2023/03/25 01:03:57;;;;;;;4.30;1.57;;;9.50;31.10;;;;;;5092924;28;20646;-72
2023/03/25 01:06:28;;;;;;;5.43;1.00;;;9.50;31.10;;;;;;5095713;28;20479;-72
2023/03/25 01:08:57;;;;;;;3.80;1.17;;;9.50;31.00;;;;;;5093946;28;20967;-72
2023/03/25 01:11:26;;;;;;;5.10;1.40;;;9.50;31.20;;;;;;5092462;28;20448;-72
2023/03/25 01:13:55;;;;;;;5.60;1.37;;;9.50;31.30;;;;;;5096631;28;20464;-72
2023/03/25 01:16:22;;;;;;;5.00;1.20;;;9.40;31.30;;;;;;5093657;28;20478;-72
2023/03/25 01:18:49;;;;;;;5.33;1.43;;;9.50;31.30;;;;;;5094085;28;20456;-72
2023/03/25 01:21:18;;;;;;;4.40;1.10;;;9.50;31.20;;;;;;5093498;28;20460;-72
2023/03/25 01:23:44;;;;;;;4.00;1.10;;;9.50;31.20;;;;;;5092361;28;20568;-72
2023/03/25 01:26:12;;;;;;;5.03;1.10;;;9.50;31.10;;;;;;5084019;28;20480;-72
2023/03/25 01:28:39;;;;;;;4.70;1.23;;;9.60;31.00;;;;;;5090691;27;20491;-72
2023/03/25 01:31:08;;;;;;;6.60;1.30;;;9.60;30.80;;;;;;5087702;28;20471;-72
2023/03/25 01:33:35;;;;;;;5.13;1.50;;;9.60;30.60;;;;;;5087149;28;20930;-72
2023/03/25 01:36:02;;;;;;;4.20;1.10;;;9.60;30.70;;;;;;5092560;28;20826;-72
2023/03/25 01:38:31;;;;;;;6.60;1.90;;;9.70;30.70;;;;;;5087953;28;20465;-72
2023/03/25 01:40:58;;;;;;;5.17;1.50;;;9.70;30.60;;;;;;5085165;28;20456;-72
2023/03/25 01:43:25;;;;;;;5.10;1.43;;;9.70;30.80;;;;;;5090846;28;20448;-73
2023/03/25 01:45:52;;;;;;;5.95;1.98;;;9.70;30.90;;;;;;5089503;28;20506;-72
2023/03/25 01:48:23;;;;;;;4.10;1.20;;;9.80;31.70;;;;;;5087238;28;20466;-72
2023/03/25 01:50:55;;;;;;;7.03;1.80;;;9.90;30.90;;;;;;5088056;28;20474;-72
2023/03/25 01:53:22;;;;;;;4.50;1.20;;;10.00;30.80;;;;;;5084611;27;20970;-72
2023/03/25 01:55:53;;;;;;;4.10;1.20;;;10.00;31.10;;;;;;5086550;28;20479;-72
2023/03/25 01:58:21;;;;;;;4.30;1.10;;;10.10;31.70;;;;;;5094445;28;20838;-72
2023/03/25 02:00:49;;;;;;;6.50;1.93;;;10.10;31.90;;;;;;5093101;28;20486;-72
2023/03/25 02:03:17;;;;;;;5.60;1.77;;;10.10;33.10;;;;;;5092053;28;20452;-72
2023/03/25 02:05:51;;;;;;;5.57;1.67;;;10.10;32.30;;;;;;5092866;28;20588;-72
2023/03/25 02:08:19;;;;;;;6.70;1.93;;;10.00;32.20;;;;;;5089275;28;20459;-72
2023/03/25 02:10:47;;;;;;;7.20;1.50;;;10.00;32.20;;;;;;5090332;28;20452;-72
2023/03/25 02:13:17;;;;;;;5.50;1.90;;;9.90;32.60;;;;;;5091773;28;20455;-72
2023/03/25 02:16:02;;;;;;;4.50;1.60;;;9.80;32.70;;;;;;5089181;28;20487;-72
2023/03/25 02:18:38;;;;;;;5.90;1.70;;;9.80;33.20;;;;;;5095242;28;20467;-72
2023/03/25 02:21:50;;;;;;;6.07;1.73;;;9.60;33.30;;;;;;5086904;28;21243;-72
2023/03/25 02:24:42;;;;;;;5.30;1.90;;;9.60;33.30;;;;;;5093074;28;20451;-72
2023/03/25 02:27:40;;;;;;;5.73;1.60;;;9.40;33.60;;;;;;5094762;28;20945;-72
2023/03/25 02:30:43;;;;;;;5.40;1.50;;;9.30;33.90;;;;;;5089545;28;20973;-72
2023/03/25 02:33:37;;;;;;;9.20;2.07;;;9.20;34.10;;;;;;5088334;28;20468;-72
2023/03/25 02:36:47;;;;;;;5.70;1.77;;;9.10;34.50;;;;;;5083374;28;20491;-72
2023/03/25 02:39:21;;;;;;;4.50;1.67;;;9.00;34.90;;;;;;5087632;28;20879;-72
2023/03/25 02:41:53;;;;;;;5.47;1.60;;;8.90;35.10;;;;;;5090729;28;20829;-72
2023/03/25 02:44:27;;;;;;;6.30;1.53;;;8.90;35.40;;;;;;5088600;28;20458;-72
2023/03/25 02:46:58;;;;;;;4.47;1.70;;;8.80;35.50;;;;;;5094990;28;20813;-72
2023/03/25 02:49:29;;;;;;;10.30;2.00;;;8.80;35.60;;;;;;5091166;28;20466;-72
2023/03/25 02:52:00;;;;;;;7.27;1.87;;;8.80;35.70;;;;;;5091351;28;20455;-72
2023/03/25 02:54:32;;;;;;;5.40;1.60;;;8.80;35.90;;;;;;5087796;28;20483;-72
2023/03/25 02:57:00;;;;;;;6.53;1.67;;;8.90;36.00;;;;;;5092648;28;20563;-72
2023/03/25 02:59:31;;;;;;;7.57;1.70;;;9.00;36.10;;;;;;5093095;28;20654;-72
2023/03/25 03:02:00;;;;;;;7.13;1.60;;;8.90;36.00;;;;;;5084189;28;20847;-72
2023/03/25 03:04:27;;;;;;;19.70;2.07;;;8.90;35.80;;;;;;5091535;28;20452;-72
2023/03/25 03:06:56;;;;;;;6.97;2.10;;;9.00;35.80;;;;;;5088920;28;20475;-72
2023/03/25 03:09:36;;;;;;;6.00;2.07;;;9.10;35.60;;;;;;5093017;28;20467;-72
2023/03/25 03:12:16;;;;;;;69.50;44.13;;;9.20;35.60;;;;;;5090488;28;20480;-72
2023/03/25 03:14:56;;;;;;;10.40;3.80;;;9.20;35.90;;;;;;5086716;28;20475;-72
2023/03/25 03:17:28;;;;;;;5.40;1.30;;;9.20;35.80;;;;;;5085332;28;23261;-72
2023/03/25 03:20:00;;;;;;;4.83;1.83;;;9.30;35.90;;;;;;5087450;28;20455;-72
2023/03/25 03:22:39;;;;;;;8.70;2.00;;;9.30;35.80;;;;;;5084714;28;20495;-72
2023/03/25 03:25:20;;;;;;;6.50;1.30;;;9.30;35.90;;;;;;5089112;28;20461;-72
2023/03/25 03:27:51;;;;;;;9.40;2.13;;;9.20;35.70;;;;;;5091010;28;20456;-72
2023/03/25 03:30:22;;;;;;;8.03;1.53;;;9.20;35.80;;;;;;5094913;28;20499;-72
2023/03/25 03:32:56;;;;;;;5.00;1.60;;;9.20;35.90;;;;;;5094365;28;20458;-72
2023/03/25 03:35:27;;;;;;;5.10;1.50;;;9.10;36.20;;;;;;5089968;28;20990;-72
2023/03/25 03:37:59;;;;;;;6.00;1.70;;;9.10;36.40;;;;;;5093000;28;20466;-72
2023/03/25 03:40:29;;;;;;;6.20;1.80;;;9.00;36.60;;;;;;5092888;28;20456;-72
2023/03/25 03:42:59;;;;;;;7.60;1.60;;;9.00;36.90;;;;;;5096062;28;20455;-72
2023/03/25 03:45:30;;;;;;;5.60;1.70;;;9.00;37.10;;;;;;5095829;28;20954;-72
2023/03/25 03:48:00;;;;;;;6.00;1.77;;;9.00;37.30;;;;;;5093398;28;21032;-72
2023/03/25 03:50:31;;;;;;;6.20;2.13;;;9.00;37.40;;;;;;5099064;28;20501;-72
2023/03/25 03:53:06;;;;;;;6.50;1.83;;;8.90;37.60;;;;;;5091405;28;20936;-72
2023/03/25 03:55:39;;;;;;;5.40;1.77;;;9.00;37.50;;;;;;5095007;28;20483;-72
2023/03/25 03:58:14;;;;;;;5.40;1.60;;;8.90;37.50;;;;;;5098125;28;20467;-72
2023/03/25 04:00:44;;;;;;;7.20;1.60;;;8.90;37.90;;;;;;5096227;28;20539;-72
2023/03/25 04:03:15;;;;;;;7.37;2.10;;;8.90;38.00;;;;;;5095988;28;20815;-72
2023/03/25 04:05:46;;;;;;;13.07;1.90;;;8.90;38.10;;;;;;5092399;28;20491;-72
2023/03/25 04:08:22;;;;;;;6.93;1.50;;;8.90;38.20;;;;;;5094783;28;20474;-72
2023/03/25 04:10:57;;;;;;;7.27;1.90;;;8.90;38.10;;;;;;5096130;28;20828;-72
2023/03/25 04:13:29;;;;;;;5.07;1.50;;;8.90;38.20;;;;;;5094216;28;20842;-72
2023/03/25 04:15:59;;;;;;;8.40;1.33;;;9.00;38.20;;;;;;5093029;28;20483;-72
2023/03/25 04:18:27;;;;;;;4.93;1.30;;;9.00;38.20;;;;;;5093662;28;20723;-72
2023/03/25 04:20:54;;;;;;;6.17;1.50;;;9.10;38.10;;;;;;5092035;28;20463;-72
2023/03/25 04:23:21;;;;;;;6.57;1.57;;;9.10;37.80;;;;;;5092750;28;20547;-72
2023/03/25 04:25:51;;;;;;;7.33;2.03;;;9.10;37.60;;;;;;5093789;28;21091;-72
2023/03/25 04:28:18;;;;;;;6.63;1.70;;;9.10;37.60;;;;;;5090570;28;20471;-71
2023/03/25 04:30:45;;;;;;;5.70;1.23;;;9.00;37.70;;;;;;5090036;28;20472;-72
2023/03/25 04:33:13;;;;;;;6.33;1.63;;;9.00;37.70;;;;;;5096465;28;20762;-72
2023/03/25 04:35:40;;;;;;;6.57;1.30;;;9.00;37.40;;;;;;5091912;28;20501;-72
2023/03/25 04:38:07;;;;;;;5.67;1.00;;;9.00;37.00;;;;;;5085464;28;20459;-72
2023/03/25 04:40:34;;;;;;;8.53;1.30;;;9.00;36.70;;;;;;5095718;28;20462;-72
2023/03/25 04:43:02;;;;;;;5.60;1.20;;;9.00;36.60;;;;;;5091550;28;20810;-72
2023/03/25 04:45:35;;;;;;;6.70;1.60;;;8.90;36.60;;;;;;5096296;28;20482;-72
2023/03/25 04:48:04;;;;;;;6.57;0.80;;;8.90;36.40;;;;;;5094761;28;20460;-72
2023/03/25 04:50:32;;;;;;;5.73;1.10;;;8.90;36.30;;;;;;5095951;28;20455;-72
2023/03/25 04:53:00;;;;;;;5.20;0.97;;;8.90;36.30;;;;;;5092368;28;20538;-72
2023/03/25 04:55:28;;;;;;;8.67;1.30;;;8.90;36.40;;;;;;5094124;28;20525;-72
2023/03/25 04:57:55;;;;;;;4.43;1.00;;;8.90;36.50;;;;;;5092243;28;20816;-72
2023/03/25 05:00:25;;;;;;;7.43;1.90;;;8.80;36.20;;;;;;5098090;28;20459;-72
2023/03/25 05:02:53;;;;;;;7.87;1.53;;;8.80;36.00;;;;;;5092605;28;20464;-72
2023/03/25 05:05:22;;;;;;;13.50;1.87;;;8.80;35.90;;;;;;5094114;28;21039;-72
2023/03/25 05:07:52;;;;;;;4.67;1.17;;;8.80;36.50;;;;;;5090670;28;20468;-72
2023/03/25 05:10:20;;;;;;;6.10;1.17;;;8.70;35.60;;;;;;5090475;28;20964;-72
2023/03/25 05:12:47;;;;;;;7.73;1.40;;;8.70;35.50;;;;;;5095336;28;20456;-72
2023/03/25 05:15:15;;;;;;;6.47;0.93;;;8.70;35.30;;;;;;5101518;28;20566;-68
2023/03/25 05:17:44;;;;;;;8.03;1.50;;;8.70;35.20;;;;;;5103185;28;20462;-68
2023/03/25 05:20:12;;;;;;;4.37;1.00;;;8.70;34.60;;;;;;5099553;28;20478;-72
2023/03/25 05:22:40;;;;;;;4.80;1.00;;;8.70;34.40;;;;;;5104539;28;20467;-72
2023/03/25 05:25:09;;;;;;;6.27;1.23;;;8.70;33.50;;;;;;5097393;28;20463;-72
2023/03/25 05:27:37;;;;;;;9.10;1.27;;;8.60;33.30;;;;;;5099253;28;20471;-72
2023/03/25 05:30:05;;;;;;;6.43;1.00;;;8.60;33.00;;;;;;5103011;28;20475;-72
2023/03/25 05:32:33;;;;;;;7.67;1.10;;;8.60;33.00;;;;;;5101891;28;20481;-73
2023/03/25 05:35:01;;;;;;;5.13;0.90;;;8.60;33.10;;;;;;5101763;28;20526;-72
2023/03/25 05:37:28;;;;;;;4.43;0.90;;;8.60;32.70;;;;;;5098792;28;20487;-72
2023/03/25 05:39:55;;;;;;;7.93;1.10;;;8.60;32.50;;;;;;5100330;28;20451;-72
2023/03/25 05:42:22;;;;;;;4.17;0.80;;;8.50;32.10;;;;;;5100815;28;20455;-72
2023/03/25 05:44:50;;;;;;;7.53;1.07;;;8.50;32.20;;;;;;5094900;28;20467;-72
2023/03/25 05:47:20;;;;;;;3.60;0.67;;;8.60;31.90;;;;;;5102340;28;20484;-72
2023/03/25 05:49:47;;;;;;;4.93;0.80;;;8.50;31.20;;;;;;5097908;28;20468;-72
2023/03/25 05:52:16;;;;;;;3.80;1.13;;;8.50;31.10;;;;;;5099094;28;20891;-72
2023/03/25 05:54:44;;;;;;;4.30;0.90;;;8.50;31.20;;;;;;5104627;28;21007;-72
2023/03/25 05:57:11;;;;;;;6.20;0.80;;;8.50;31.10;;;;;;5095757;28;20475;-72
2023/03/25 05:59:39;;;;;;;4.13;0.80;;;8.50;30.70;;;;;;5096299;28;20456;-72
2023/03/25 06:02:07;;;;;;;4.20;1.07;;;8.50;30.80;;;;;;5094666;28;20502;-72
2023/03/25 06:04:36;;;;;;;4.23;0.70;;;8.40;30.50;;;;;;5107870;28;20459;-72
2023/03/25 06:07:08;;;;;;;5.80;0.63;;;8.40;30.20;;;;;;5096614;28;20476;-72
2023/03/25 06:09:36;;;;;;;3.97;0.70;;;8.40;29.80;;;;;;5099024;28;20463;-72
2023/03/25 06:12:03;;;;;;;4.80;0.73;;;8.40;30.00;;;;;;5099124;28;20466;-72
2023/03/25 06:14:30;;;;;;;4.20;0.90;;;8.40;29.90;;;;;;5102658;28;20536;-72
2023/03/25 06:16:57;;;;;;;3.90;0.80;;;8.40;30.00;;;;;;5095615;28;20491;-72
2023/03/25 06:19:25;;;;;;;5.50;0.90;;;8.40;30.00;;;;;;5098413;28;20466;-72
2023/03/25 06:21:52;;;;;;;4.67;0.70;;;8.40;29.70;;;;;;5098463;28;20586;-72
2023/03/25 06:24:19;;;;;;;4.10;0.60;;;8.70;29.90;;;;;;5098839;28;20467;-72
2023/03/25 06:26:47;;;;;;;3.90;0.70;;;9.10;29.40;;;;;;5101371;28;20497;-72
2023/03/25 06:29:14;;;;;;;3.33;0.53;;;9.30;27.30;;;;;;5100897;28;20463;-72
2023/03/25 06:31:41;;;;;;;6.70;0.60;;;9.50;26.90;;;;;;5095939;28;20825;-73
2023/03/25 06:34:09;;;;;;;3.40;0.50;;;10.00;25.30;;;;;;5095955;28;20467;-72
2023/03/25 06:36:35;;;;;;;6.23;0.60;;;10.30;24.30;;;;;;5094264;28;20563;-72
2023/03/25 06:39:04;;;;;;;3.87;1.03;;;10.70;23.60;;;;;;5100790;28;20464;-72
2023/03/25 06:41:34;;;;;;;4.80;0.50;;;11.20;21.40;;;;;;5095714;28;20452;-72
2023/03/25 06:44:02;;;;;;;5.00;0.73;;;11.30;21.00;;;;;;5098045;28;20458;-73
2023/03/25 06:46:29;;;;;;;4.37;0.70;;;11.20;20.40;;;;;;5103088;28;20472;-72
2023/03/25 06:48:56;;;;;;;3.93;0.70;;;11.40;21.00;;;;;;5100338;28;20466;-72
2023/03/25 06:51:23;;;;;;;4.47;0.67;;;11.50;20.50;;;;;;5094021;28;22547;-72
2023/03/25 06:53:50;;;;;;;7.27;0.90;;;12.60;19.10;;;;;;5106707;28;20466;-72
2023/03/25 06:56:16;;;;;;;4.50;0.70;;;14.10;16.20;;;;;;5103673;28;20493;-72
2023/03/25 06:58:43;;;;;;;3.30;0.47;;;15.50;12.90;;;;;;5103405;28;20478;-73
2023/03/25 07:01:11;;;;;;;7.53;0.70;;;15.90;10.90;;;;;;5096260;28;21148;-73
2023/03/25 07:03:38;;;;;;;3.70;0.60;;;15.70;11.00;;;;;;5093735;28;20460;-72
2023/03/25 07:06:06;;;;;;;3.73;0.70;;;15.60;10.50;;;;;;5097721;28;20482;-73
2023/03/25 07:08:34;;;;;;;5.57;0.80;;;15.20;10.90;;;;;;5089831;28;20448;-73
2023/03/25 07:11:01;;;;;;;3.83;0.70;;;15.20;11.00;;;;;;5091537;28;20456;-73
2023/03/25 07:13:30;;;;;;;4.47;1.03;;;14.50;11.50;;;;;;5098031;28;20517;-73
2023/03/25 07:15:57;;;;;;;7.53;0.80;;;13.80;12.70;;;;;;5100229;28;21014;-73
2023/03/25 07:18:25;;;;;;;4.37;0.97;;;13.30;14.40;;;;;;5099757;28;20452;-73
2023/03/25 07:20:52;;;;;;;4.60;0.90;;;13.00;15.30;;;;;;5096517;28;20837;-73
2023/03/25 07:23:18;;;;;;;8.00;0.60;;;12.70;16.20;;;;;;5095000;28;20486;-73
2023/03/25 07:25:45;;;;;;;4.13;0.70;;;12.40;17.00;;;;;;5098028;28;20962;-73
2023/03/25 07:28:12;;;;;;;5.20;0.97;;;12.10;18.10;;;;;;5104870;28;20848;-73
2023/03/25 07:30:39;;;;;;;3.80;0.80;;;12.20;18.60;;;;;;5105966;27;20737;-73
2023/03/25 07:33:06;;;;;;;4.27;0.70;;;12.60;18.00;;;;;;5109055;28;21043;-73
2023/03/25 07:35:34;;;;;;;4.47;1.13;;;12.70;17.80;;;;;;5103858;28;20489;-73
2023/03/25 07:38:01;;;;;;;6.40;1.30;;;12.60;17.40;;;;;;5097360;28;20467;-73
2023/03/25 07:40:28;;;;;;;3.93;0.60;;;12.40;17.60;;;;;;5095056;28;20555;-73
2023/03/25 07:42:55;;;;;;;3.73;0.63;;;12.20;17.90;;;;;;5102963;28;20451;-73
2023/03/25 07:45:22;;;;;;;3.60;0.60;;;12.10;18.20;;;;;;5100888;28;20455;-73
2023/03/25 07:47:49;;;;;;;4.23;0.80;;;12.10;17.80;;;;;;5096972;28;20459;-73
2023/03/25 07:50:16;;;;;;;3.87;0.80;;;11.90;18.50;;;;;;5098514;28;20468;-73
2023/03/25 07:52:44;;;;;;;3.80;0.60;;;11.70;19.40;;;;;;5099268;27;20901;-73
2023/03/25 07:55:12;;;;;;;4.23;0.73;;;11.40;19.50;;;;;;5099261;28;20493;-73
2023/03/25 07:57:40;;;;;;;3.60;0.50;;;11.20;20.00;;;;;;5098263;28;20485;-72
2023/03/25 08:00:09;;;;;;;3.57;0.60;;;11.10;20.80;;;;;;5093854;28;21737;-73
2023/03/25 08:02:36;;;;;;;7.83;0.50;;;11.00;20.70;;;;;;5095869;28;20489;-73
2023/03/25 08:05:04;;;;;;;3.60;0.40;;;11.00;21.10;;;;;;5102007;28;20496;-73
2023/03/25 08:07:31;;;;;;;3.80;0.70;;;11.10;21.20;;;;;;5097659;28;20541;-73
2023/03/25 08:09:59;;;;;;;3.47;0.50;;;11.30;20.90;;;;;;5105381;28;20463;-73
2023/03/25 08:12:26;;;;;;;4.77;0.70;;;11.40;20.20;;;;;;5101140;28;20837;-73
2023/03/25 08:14:53;;;;;;;4.53;0.50;;;11.50;20.40;;;;;;5092974;28;20455;-73
2023/03/25 08:17:23;;;;;;;3.70;0.50;;;12.60;19.40;;;;;;5090477;28;20483;-73
2023/03/25 08:19:50;;;;;;;5.63;0.67;;;12.90;17.90;;;;;;5093824;28;20468;-73
2023/03/25 08:22:17;;;;;;;4.67;0.70;;;13.10;17.70;;;;;;5095528;28;20461;-73
2023/03/25 08:24:44;;;;;;;3.30;0.40;;;13.50;17.00;;;;;;5088338;28;20459;-72
2023/03/25 08:27:12;;;;;;;3.37;0.63;;;13.70;16.00;;;;;;5100400;28;20514;-73
2023/03/25 08:29:39;;;;;;;4.27;0.50;;;13.50;15.10;;;;;;5099423;28;20466;-73
2023/03/25 08:32:06;;;;;;;5.73;1.00;;;13.30;15.50;;;;;;5093089;27;20854;-73
2023/03/25 08:34:38;;;;;;;3.93;0.67;;;13.20;16.00;;;;;;5097802;28;20463;-73
2023/03/25 08:37:06;;;;;;;3.73;0.50;;;12.90;16.60;;;;;;5096856;27;21009;-73
2023/03/25 08:39:38;;;;;;;3.47;0.53;;;12.60;16.80;;;;;;5097248;28;20957;-73
2023/03/25 08:42:05;;;;;;;3.60;0.50;;;12.40;17.20;;;;;;5096418;28;20499;-73
2023/03/25 08:44:33;;;;;;;4.20;0.60;;;12.10;18.00;;;;;;5090090;28;20626;-73
2023/03/25 08:47:00;;;;;;;5.30;1.07;;;11.90;18.50;;;;;;5093223;28;20471;-73
2023/03/25 08:49:27;;;;;;;4.90;0.60;;;11.70;19.00;;;;;;5090595;28;20527;-73
2023/03/25 08:51:56;;;;;;;4.60;0.57;;;11.50;19.70;;;;;;5096384;28;20451;-73
2023/03/25 08:54:23;;;;;;;4.07;0.50;;;11.30;20.00;;;;;;5103431;28;20550;-73
2023/03/25 08:56:50;;;;;;;3.70;0.73;;;11.20;20.30;;;;;;5092856;28;20488;-73
2023/03/25 08:59:16;;;;;;;4.00;0.70;;;11.20;21.00;;;;;;5095342;28;20538;-73
2023/03/25 09:01:45;;;;;;;4.30;0.50;;;11.10;21.20;;;;;;5096241;27;20594;-73
2023/03/25 09:04:12;;;;;;;6.60;1.83;;;11.00;21.70;;;;;;5092067;28;21194;-73
2023/03/25 09:06:39;;;;;;;3.60;0.70;;;11.00;22.10;;;;;;5086628;28;20480;-73
2023/03/25 09:09:09;;;;;;;4.30;0.70;;;10.90;21.80;;;;;;5086799;28;20459;-73
2023/03/25 09:11:36;;;;;;;6.63;0.80;;;10.80;21.80;;;;;;5085779;28;21018;-73
2023/03/25 09:14:03;;;;;;;7.03;1.20;;;10.80;22.50;;;;;;5087509;28;20475;-73
2023/03/25 09:16:30;;;;;;;6.90;1.27;;;10.70;22.90;;;;;;5092730;28;20488;-73
2023/03/25 09:18:58;;;;;;;5.50;1.20;;;10.70;23.50;;;;;;5091998;28;20463;-73
2023/03/25 09:21:25;;;;;;;3.70;0.70;;;10.70;23.40;;;;;;5101492;28;20460;-73
2023/03/25 09:23:52;;;;;;;7.00;1.53;;;10.70;23.80;;;;;;5092558;28;21376;-73
2023/03/25 09:26:19;;;;;;;3.90;0.90;;;10.70;24.10;;;;;;5097568;28;20487;-73
2023/03/25 09:28:46;;;;;;;4.67;1.10;;;10.70;23.20;;;;;;5091501;28;20464;-73
2023/03/25 09:31:13;;;;;;;4.70;1.10;;;10.70;23.70;;;;;;5094611;27;20555;-73
2023/03/25 09:33:40;;;;;;;4.47;0.93;;;10.60;24.30;;;;;;5100222;27;20465;-73
2023/03/25 09:36:10;;;;;;;7.77;1.30;;;10.50;24.20;;;;;;5078681;28;20475;-73
2023/03/25 09:38:37;;;;;;;4.47;0.80;;;10.50;24.60;;;;;;5082854;27;20959;-73
2023/03/25 09:41:19;;;;;;;8.87;1.97;;;10.50;25.30;;;;;;5089903;28;20468;-73
2023/03/25 09:43:56;;;;;;;4.50;0.77;;;10.70;24.50;;;;;;5084559;28;20460;-73
2023/03/25 09:46:24;;;;;;;4.60;0.90;;;11.20;23.00;;;;;;5098045;28;20486;-73
2023/03/25 09:48:51;;;;;;;4.87;0.80;;;11.30;22.20;;;;;;5090539;27;20476;-73
2023/03/25 09:51:24;;;;;;;5.70;0.80;;;11.30;22.30;;;;;;5098312;27;20456;-73
2023/03/25 09:53:56;;;;;;;4.83;0.63;;;11.50;21.80;;;;;;5081929;28;20478;-73
2023/03/25 09:56:27;;;;;;;6.70;1.00;;;11.60;21.50;;;;;;5090925;27;20484;-73
2023/03/25 09:58:58;;;;;;;4.60;0.90;;;11.50;22.10;;;;;;5072116;28;20460;-73
2023/03/25 10:01:35;;;;;;;3.70;0.80;;;11.50;21.50;;;;;;5088460;28;20472;-73
2023/03/25 10:04:20;;;;;;;4.10;0.90;;;11.40;22.00;;;;;;5082954;28;20463;-73
2023/03/25 10:06:57;;;;;;;3.60;0.60;;;11.60;22.00;;;;;;5096325;28;20882;-73
2023/03/25 10:09:39;;;;;;;3.53;0.80;;;12.10;20.20;;;;;;5086400;28;20535;-73
2023/03/25 10:12:17;;;;;;;4.37;1.00;;;13.10;19.80;;;;;;5093854;28;20467;-73
2023/03/25 10:14:58;;;;;;;4.93;0.70;;;15.00;15.40;;;;;;5087133;28;20463;-73
2023/03/25 10:17:33;;;;;;;6.70;0.70;;;14.90;13.80;;;;;;5087215;28;20484;-73
2023/03/25 10:20:06;;;;;;;4.63;0.67;;;14.20;14.40;;;;;;5087328;28;20458;-73
2023/03/25 10:22:40;;;;;;;3.80;0.63;;;13.80;15.90;;;;;;5084551;28;20488;-73
2023/03/25 10:25:15;;;;;;;4.13;0.80;;;13.90;15.10;;;;;;5086637;28;20463;-73
2023/03/25 10:27:45;;;;;;;4.13;1.10;;;13.60;15.40;;;;;;5084954;27;20464;-73
2023/03/25 10:30:15;;;;;;;4.10;0.50;;;13.70;16.50;;;;;;5087160;28;20470;-73
2023/03/25 10:32:45;;;;;;;3.83;0.50;;;14.70;14.40;;;;;;5079148;28;21039;-73
2023/03/25 10:35:18;;;;;;;4.30;0.80;;;15.30;12.50;;;;;;5094580;27;20824;-73
2023/03/25 10:37:48;;;;;;;3.53;0.60;;;15.70;12.10;;;;;;5083020;28;21021;-73
2023/03/25 10:40:21;;;;;;;5.30;0.70;;;15.40;12.10;;;;;;5091552;28;20457;-73
2023/03/25 10:42:58;;;;;;;3.70;0.67;;;15.60;12.80;;;;;;5090337;28;20517;-73
2023/03/25 10:45:25;;;;;;;6.30;0.70;;;15.90;12.50;;;;;;5094943;28;20455;-73
2023/03/25 10:47:57;;;;;;;3.80;0.60;;;15.80;12.40;;;;;;5088340;28;20813;-73
2023/03/25 10:50:25;;;;;;;4.80;0.50;;;16.40;11.90;;;;;;5086146;28;20466;-73
2023/03/25 10:52:55;;;;;;;4.40;0.53;;;17.30;11.00;;;;;;5089800;28;21255;-73
2023/03/25 10:55:25;;;;;;;4.07;0.40;;;19.30;6.90;;;;;;5088851;27;20520;-73
2023/03/25 10:57:52;;;;;;;3.70;0.60;;;20.00;4.40;;;;;;5099500;28;20490;-73
2023/03/25 11:00:22;;;;;;;4.23;0.47;;;19.40;4.30;;;;;;5086654;28;20464;-73
2023/03/25 11:02:49;;;;;;;4.00;0.40;;;18.40;5.40;;;;;;5093841;28;20491;-74
2023/03/25 11:05:18;;;;;;;3.30;0.50;;;18.90;5.20;;;;;;5092575;28;20481;-73
2023/03/25 11:07:49;;;;;;;3.47;0.50;;;18.00;6.50;;;;;;5090275;28;20459;-73
2023/03/25 11:10:20;;;;;;;3.77;0.60;;;16.90;8.00;;;;;;5076259;28;20969;-74
2023/03/25 11:12:50;;;;;;;3.60;0.60;;;16.40;8.70;;;;;;5077999;28;20459;-73
2023/03/25 11:15:21;;;;;;;3.73;0.60;;;15.80;9.90;;;;;;5075876;28;20468;-74
2023/03/25 11:17:55;;;;;;;3.60;0.60;;;16.60;10.00;;;;;;5076910;28;20496;-73
2023/03/25 11:20:28;;;;;;;3.67;0.50;;;17.70;8.90;;;;;;5068609;28;20548;-73
2023/03/25 11:23:03;;;;;;;3.37;0.50;;;18.60;6.90;;;;;;5075871;28;20467;-73
2023/03/25 11:25:38;;;;;;;3.20;0.40;;;19.60;5.60;;;;;;5079194;28;20541;-73
2023/03/25 11:28:11;;;;;;;3.50;0.50;;;19.80;4.20;;;;;;5090181;28;20470;-74
2023/03/25 11:31:11;;;;;;;3.60;0.40;;;18.70;4.40;;;;;;5054403;27;20523;-73
2023/03/25 11:33:38;;;;;;;4.73;1.10;;;18.90;6.40;;;;;;5061827;28;20466;-73
2023/03/25 11:36:24;;;;;;;3.77;0.40;;;19.10;4.80;;;;;;5085646;28;20475;-74
2023/03/25 11:38:55;;;;;;;3.20;0.40;;;19.20;4.50;;;;;;5099268;28;20483;-74
2023/03/25 11:41:22;;;;;;;3.70;0.60;;;19.20;5.10;;;;;;5086240;28;20455;-74
2023/03/25 11:43:49;;;;;;;3.93;0.77;;;19.20;4.80;;;;;;5082287;27;20482;-73
2023/03/25 11:46:21;;;;;;;3.20;0.40;;;18.80;5.60;;;;;;5059599;28;20495;-73
2023/03/25 11:48:49;;;;;;;3.40;0.50;;;18.00;5.40;;;;;;5080978;28;20969;-73
2023/03/25 11:51:20;;;;;;;3.10;0.40;;;17.10;7.30;;;;;;5090468;28;20459;-73
2023/03/25 11:53:53;;;;;;;3.40;0.40;;;16.60;8.40;;;;;;5085446;28;20464;-73
2023/03/25 11:56:23;;;;;;;3.50;0.50;;;16.30;7.60;;;;;;5091987;28;20472;-73
2023/03/25 11:58:50;;;;;;;3.30;0.50;;;16.00;9.60;;;;;;5098342;28;20856;-73
2023/03/25 12:01:26;;;;;;;4.07;0.70;;;15.80;10.10;;;;;;5088676;28;21023;-73
2023/03/25 12:04:07;;;;;;;4.70;0.40;;;15.70;9.60;;;;;;5089514;28;20469;-73
2023/03/25 12:06:34;;;;;;;3.50;0.37;;;15.70;9.00;;;;;;5092187;28;20476;-73
2023/03/25 12:09:03;;;;;;;3.73;0.67;;;15.70;9.30;;;;;;5080606;28;20463;-73
2023/03/25 12:11:35;;;;;;;3.13;0.30;;;15.70;9.90;;;;;;5086823;28;20554;-73
2023/03/25 12:14:19;;;;;;;3.10;0.40;;;15.60;8.90;;;;;;5091512;28;20467;-73
2023/03/25 12:16:55;;;;;;;3.90;0.60;;;15.40;9.90;;;;;;5086588;28;20822;-73
2023/03/25 12:19:32;;;;;;;3.50;0.50;;;15.20;9.60;;;;;;5092533;28;20485;-73
2023/03/25 12:22:09;;;;;;;4.53;0.50;;;14.90;9.90;;;;;;5097057;27;20462;-73
2023/03/25 12:24:49;;;;;;;3.20;0.40;;;14.70;10.50;;;;;;5084475;28;20454;-73
2023/03/25 12:27:28;;;;;;;3.10;0.30;;;14.50;11.30;;;;;;5086799;28;20475;-74
2023/03/25 12:30:04;;;;;;;3.13;0.30;;;14.30;11.70;;;;;;5074896;28;20461;-73
2023/03/25 12:32:40;;;;;;;3.30;0.50;;;14.40;11.90;;;;;;5095840;28;20497;-73
2023/03/25 12:35:21;;;;;;;3.17;0.50;;;14.30;12.20;;;;;;5093615;28;20912;-74
2023/03/25 12:38:03;;;;;;;3.20;0.40;;;14.30;11.90;;;;;;5092701;28;20889;-74
2023/03/25 12:40:41;;;;;;;3.57;0.40;;;14.20;11.50;;;;;;5091244;27;20452;-71
2023/03/25 12:43:11;;;;;;;4.40;0.60;;;14.30;11.60;;;;;;5112743;27;20825;-71
2023/03/25 12:46:06;;;;;;;3.50;0.60;;;14.40;11.90;;;;;;5100489;28;20872;-70
2023/03/25 12:48:46;;;;;;;3.60;0.40;;;14.40;10.80;;;;;;5099891;28;20444;-70
2023/03/25 12:51:21;;;;;;;3.30;0.50;;;14.40;10.50;;;;;;5106889;27;20456;-70
2023/03/25 12:53:57;;;;;;;4.33;0.50;;;14.40;10.60;;;;;;5103470;28;20499;-71
2023/03/25 12:56:41;;;;;;;3.30;0.47;;;14.30;10.50;;;;;;5102941;28;20471;-70
2023/03/25 12:59:33;;;;;;;3.60;0.60;;;14.30;11.50;;;;;;5103771;28;20459;-71
2023/03/25 13:02:13;;;;;;;3.33;0.67;;;14.40;12.80;;;;;;5100730;28;20474;-70
2023/03/25 13:04:54;;;;;;;3.60;0.43;;;14.50;11.10;;;;;;5093472;28;20590;-74
2023/03/25 13:07:26;;;;;;;4.03;0.40;;;14.40;10.60;;;;;;5084082;28;21003;-74
2023/03/25 13:10:02;;;;;;;3.27;0.60;;;14.20;11.90;;;;;;5091808;28;20470;-74
2023/03/25 13:12:34;;;;;;;3.70;0.70;;;14.30;12.20;;;;;;5089027;28;20554;-74